createdAt,value
2023-02-27T00:01:18.665Z,99531.38
2023-02-27T00:04:21.816Z,99544.03
2023-02-27T00:07:26.267Z,99549.38
2023-02-27T00:10:29.196Z,99549.59
2023-02-27T00:13:31.774Z,99541.03
2023-02-27T00:16:34.794Z,99546.03
2023-02-27T00:19:37.971Z,99554.66
2023-02-27T00:22:42.046Z,99559.37
2023-02-27T00:25:44.701Z,99564.31
2023-02-27T00:28:47.874Z,99553.97
2023-02-27T00:31:51.057Z,99565.91
2023-02-27T00:34:54.142Z,99569.81
2023-02-27T00:37:56.805Z,99569.19
2023-02-27T00:40:59.865Z,99567.53
2023-02-27T00:44:02.672Z,99577.22
2023-02-27T00:47:05.542Z,99584.06
2023-02-27T00:50:10.282Z,99584.25
2023-02-27T00:53:13.495Z,99586.22
2023-02-27T00:56:16.172Z,99597.22
2023-02-27T00:59:19.598Z,99600.09
2023-02-27T01:02:22.740Z,99604.81
2023-02-27T01:05:25.811Z,99608.91
2023-02-27T01:08:28.567Z,99605.78
2023-02-27T01:11:32.125Z,99607.16
2023-02-27T01:14:36.467Z,99598.41
2023-02-27T01:17:39.476Z,99609.03
2023-02-27T01:20:42.155Z,99616.25
2023-02-27T01:23:48.142Z,99624.28
2023-02-27T01:26:54.649Z,99630.50
2023-02-27T01:29:57.669Z,99628.84
2023-02-27T01:33:00.374Z,99636.88
2023-02-27T01:36:03.597Z,99643.25
2023-02-27T01:39:06.409Z,99647.78
2023-02-27T01:42:35.817Z,99639.94
2023-02-27T01:45:42.219Z,99646.97
2023-02-27T01:48:45.436Z,99643.00
2023-02-27T01:52:02.069Z,99645.31
2023-02-27T01:55:08.607Z,99646.34
2023-02-27T01:58:13.757Z,99653.34
2023-02-27T02:01:17.408Z,99641.91
2023-02-27T02:04:29.842Z,99654.38
2023-02-27T02:07:34.965Z,99659.75
2023-02-27T02:10:39.903Z,99652.63
2023-02-27T02:13:43.199Z,99666.13
2023-02-27T02:16:54.745Z,99662.59
2023-02-27T02:20:22.590Z,99664.28
2023-02-27T02:23:56.019Z,99661.78
2023-02-27T02:27:05.085Z,99666.31
2023-02-27T02:30:32.831Z,99656.72
2023-02-27T02:34:10.529Z,99675.38
2023-02-27T02:37:34.608Z,99679.06
2023-02-27T02:40:59.627Z,99678.25
2023-02-27T02:44:28.993Z,99684.00
2023-02-27T02:47:59.342Z,99683.34
2023-02-27T02:52:00.806Z,99680.00
2023-02-27T02:55:18.702Z,99673.53
2023-02-27T02:58:21.324Z,99687.97
2023-02-27T03:01:31.494Z,99678.91
2023-02-27T03:04:44.512Z,99687.06
2023-02-27T03:08:16.099Z,99690.94
2023-02-27T03:11:20.272Z,99693.16
2023-02-27T03:14:42.041Z,99701.41
2023-02-27T03:18:01.564Z,99695.38
2023-02-27T03:21:10.604Z,99697.22
2023-02-27T03:24:20.984Z,99690.56
2023-02-27T03:27:30.377Z,99694.28
2023-02-27T03:31:01.028Z,99697.97
2023-02-27T03:34:30.417Z,99681.31
2023-02-27T03:37:43.737Z,99701.03
2023-02-27T03:40:54.095Z,99705.56
2023-02-27T03:44:11.314Z,99707.56
2023-02-27T03:47:14.321Z,99716.63
2023-02-27T03:50:17.479Z,99720.34
2023-02-27T03:53:41.641Z,99706.16
2023-02-27T03:57:06.039Z,99733.09
2023-02-27T04:00:13.568Z,99726.91
2023-02-27T04:03:16.392Z,99738.25
2023-02-27T04:06:37.889Z,99743.81
2023-02-27T04:10:07.956Z,99729.66
2023-02-27T04:13:25.887Z,99751.03
2023-02-27T04:16:42.653Z,99748.50
2023-02-27T04:20:20.692Z,99756.53
2023-02-27T04:23:50.958Z,99756.75
2023-02-27T04:27:23.535Z,99749.87
2023-02-27T04:30:55.666Z,99754.63
2023-02-27T04:34:07.269Z,99752.28
2023-02-27T04:37:22.573Z,99750.63
2023-02-27T04:40:42.508Z,99738.31
2023-02-27T04:43:47.731Z,99739.16
2023-02-27T04:46:52.660Z,99731.12
2023-02-27T04:50:00.986Z,99751.66
2023-02-27T04:53:47.508Z,99731.28
2023-02-27T04:56:54.790Z,99745.28
2023-02-27T05:00:01.516Z,99754.34
2023-02-27T05:03:16.694Z,99753.31
2023-02-27T05:06:25.789Z,99735.63
2023-02-27T05:09:40.974Z,99755.16
2023-02-27T05:13:17.241Z,99760.69
2023-02-27T05:16:41.874Z,99766.03
2023-02-27T05:19:46.895Z,99772.44
2023-02-27T05:22:54.560Z,99775.19
2023-02-27T05:26:04.367Z,99795.87
2023-02-27T05:29:27.961Z,99808.66
2023-02-27T05:32:51.174Z,99803.34
2023-02-27T05:36:15.591Z,99816.91
2023-02-27T05:39:22.781Z,99832.75
2023-02-27T05:42:37.049Z,99852.56
2023-02-27T05:45:43.601Z,99861.41
2023-02-27T05:49:01.595Z,99864.09
2023-02-27T05:52:10.650Z,99867.31
2023-02-27T05:55:22.332Z,99880.66
2023-02-27T05:58:38.928Z,99881.63
2023-02-27T06:01:41.660Z,99868.72
2023-02-27T06:04:44.720Z,99901.16
2023-02-27T06:07:47.345Z,99880.25
2023-02-27T06:10:50.355Z,99900.91
2023-02-27T06:13:53.070Z,99905.56
2023-02-27T06:16:56.086Z,99909.81
2023-02-27T06:19:59.100Z,99909.13
2023-02-27T06:23:02.297Z,99901.25
2023-02-27T06:26:05.085Z,99926.75
2023-02-27T06:29:08.098Z,99932.06
2023-02-27T06:32:10.783Z,99931.03
2023-02-27T06:35:13.966Z,99940.66
2023-02-27T06:38:16.754Z,99942.28
2023-02-27T06:41:19.673Z,99942.56
2023-02-27T06:44:22.423Z,99949.22
2023-02-27T06:47:25.552Z,99938.31
2023-02-27T06:50:28.658Z,99945.91
2023-02-27T06:53:31.735Z,99949.41
2023-02-27T06:56:34.392Z,99944.22
2023-02-27T06:59:37.329Z,99954.87
2023-02-27T07:02:40.911Z,99955.84
2023-02-27T07:05:43.887Z,99956.53
2023-02-27T07:09:01.661Z,99962.25
2023-02-27T07:12:09.555Z,99967.81
2023-02-27T07:15:12.274Z,99951.78
2023-02-27T07:18:15.406Z,99965.41
2023-02-27T07:21:18.180Z,99971.53
2023-02-27T07:24:21.338Z,99961.94
2023-02-27T07:27:23.956Z,99965.81
2023-02-27T07:30:27.058Z,99949.97
2023-02-27T07:33:30.119Z,99936.28
2023-02-27T07:36:34.167Z,99951.84
2023-02-27T07:39:36.865Z,99947.31
2023-02-27T07:42:40.466Z,99960.28
2023-02-27T07:45:43.247Z,99944.91
2023-02-27T07:48:46.513Z,99953.34
2023-02-27T07:51:49.341Z,99956.28
2023-02-27T07:54:52.680Z,99970.81
2023-02-27T07:57:55.322Z,99960.47
2023-02-27T08:00:58.278Z,99984.47
2023-02-27T08:04:01.552Z,99982.59
2023-02-27T08:07:05.194Z,99974.44
2023-02-27T08:10:08.668Z,100002.81
2023-02-27T08:13:11.365Z,99992.78
2023-02-27T08:16:14.362Z,99980.16
2023-02-27T08:19:17.133Z,99998.97
2023-02-27T08:22:20.764Z,99998.97
2023-02-27T08:25:23.827Z,99987.00
2023-02-27T08:28:27.878Z,99995.59
2023-02-27T08:31:30.646Z,100004.47
2023-02-27T08:34:33.702Z,100013.81
2023-02-27T08:37:36.358Z,100021.44
2023-02-27T08:40:39.328Z,100026.41
2023-02-27T08:43:41.950Z,100022.22
2023-02-27T08:46:45.029Z,100024.75
2023-02-27T08:49:47.837Z,100015.44
2023-02-27T08:52:50.834Z,100034.25
2023-02-27T08:55:54.040Z,100027.53
2023-02-27T08:58:57.063Z,100026.38
2023-02-27T09:02:00.078Z,100041.13
2023-02-27T09:05:03.325Z,100045.09
2023-02-27T09:08:07.200Z,100037.53
2023-02-27T09:11:10.130Z,100036.25
2023-02-27T09:14:13.381Z,100055.22
2023-02-27T09:17:16.347Z,100040.31
2023-02-27T09:20:19.248Z,100056.72
2023-02-27T09:23:22.186Z,100068.91
2023-02-27T09:26:40.376Z,100066.41
2023-02-27T09:29:46.560Z,100058.88
2023-02-27T09:32:50.060Z,100065.81
2023-02-27T09:35:53.169Z,100071.94
2023-02-27T09:38:58.286Z,100073.00
2023-02-27T09:42:01.153Z,100079.03
2023-02-27T09:45:07.539Z,100072.81
2023-02-27T09:48:34.528Z,100081.63
2023-02-27T09:51:37.742Z,100081.00
2023-02-27T09:54:41.862Z,100079.12
2023-02-27T09:58:08.054Z,100080.34
2023-02-27T10:01:22.018Z,100076.03
2023-02-27T10:04:45.550Z,100080.59
2023-02-27T10:08:19.386Z,100077.06
2023-02-27T10:11:38.622Z,100080.19
2023-02-27T10:15:10.452Z,100071.25
2023-02-27T10:18:29.026Z,100087.25
2023-02-27T10:21:40.652Z,100084.53
2023-02-27T10:24:52.375Z,100072.06
2023-02-27T10:28:00.556Z,100085.78
2023-02-27T10:31:19.117Z,100075.34
2023-02-27T10:34:25.711Z,100094.09
2023-02-27T10:37:28.851Z,100082.38
2023-02-27T10:40:36.329Z,100092.81
2023-02-27T10:43:40.568Z,100084.84
2023-02-27T10:46:43.437Z,100084.63
2023-02-27T10:49:46.858Z,100084.97
2023-02-27T10:52:58.424Z,100072.97
2023-02-27T10:56:08.106Z,100064.72
2023-02-27T10:59:23.373Z,100074.00
2023-02-27T11:02:38.190Z,100075.88
2023-02-27T11:05:40.862Z,100072.56
2023-02-27T11:08:44.190Z,100068.91
2023-02-27T11:11:46.908Z,100070.50
2023-02-27T11:14:55.851Z,100045.97
2023-02-27T11:18:24.347Z,100063.00
2023-02-27T11:21:30.344Z,100069.97
2023-02-27T11:24:33.805Z,100072.66
2023-02-27T11:27:36.833Z,100078.94
2023-02-27T11:30:39.688Z,100073.09
2023-02-27T11:33:56.159Z,100065.91
2023-02-27T11:37:08.534Z,100070.72
2023-02-27T11:40:14.197Z,100056.78
2023-02-27T11:43:20.503Z,100073.12
2023-02-27T11:46:45.201Z,100057.41
2023-02-27T11:49:51.765Z,100065.31
2023-02-27T11:53:16.521Z,100079.50
2023-02-27T11:56:26.887Z,100084.34
2023-02-27T11:59:44.795Z,100069.50
2023-02-27T12:03:20.460Z,100071.06
2023-02-27T12:06:38.089Z,100067.94
2023-02-27T12:09:46.692Z,100065.69
2023-02-27T12:12:57.116Z,100050.34
2023-02-27T12:16:18.481Z,100067.87
2023-02-27T12:19:41.994Z,100059.00
2023-02-27T12:22:48.640Z,100062.91
2023-02-27T12:25:57.022Z,100067.94
2023-02-27T12:29:23.036Z,100074.13
2023-02-27T12:32:31.967Z,100080.87
2023-02-27T12:35:34.780Z,100083.78
2023-02-27T12:38:38.016Z,100080.66
2023-02-27T12:41:50.570Z,100063.84
2023-02-27T12:45:08.824Z,100075.97
2023-02-27T12:48:51.280Z,100086.97
2023-02-27T12:52:19.399Z,100082.44
2023-02-27T12:55:48.010Z,100083.63
2023-02-27T12:59:41.042Z,100087.78
2023-02-27T13:03:15.679Z,100088.84
2023-02-27T13:06:27.858Z,100086.41
2023-02-27T13:09:42.901Z,100078.50
2023-02-27T13:12:54.951Z,100093.78
2023-02-27T13:16:04.454Z,100076.06
2023-02-27T13:19:17.566Z,100096.31
2023-02-27T13:22:51.648Z,100081.31
2023-02-27T13:25:56.776Z,100099.78
2023-02-27T13:29:01.024Z,100104.28
2023-02-27T13:32:07.439Z,100100.75
2023-02-27T13:35:45.222Z,100112.22
2023-02-27T13:38:50.736Z,100114.91
2023-02-27T13:41:53.395Z,100094.31
2023-02-27T13:45:01.533Z,100098.69
2023-02-27T13:48:24.414Z,100106.62
2023-02-27T13:51:36.549Z,100097.03
2023-02-27T13:54:42.210Z,100104.13
2023-02-27T13:57:47.507Z,100110.16
2023-02-27T14:00:56.829Z,100112.44
2023-02-27T14:04:03.880Z,100094.34
2023-02-27T14:07:11.229Z,100102.06
2023-02-27T14:10:22.344Z,100104.31
2023-02-27T14:13:46.593Z,100102.25
2023-02-27T14:16:49.571Z,100091.22
2023-02-27T14:19:57.190Z,100093.31
2023-02-27T14:23:15.353Z,100094.53
2023-02-27T14:26:24.226Z,100095.59
2023-02-27T14:29:33.371Z,100089.75
2023-02-27T14:32:37.831Z,100101.81
2023-02-27T14:35:46.837Z,100104.31
2023-02-27T14:38:52.188Z,100097.00
2023-02-27T14:42:07.284Z,100114.47
2023-02-27T14:45:25.374Z,100115.53
2023-02-27T14:48:29.072Z,100125.91
2023-02-27T14:51:34.486Z,100126.13
2023-02-27T14:54:37.464Z,100118.16
2023-02-27T14:57:40.124Z,100127.28
2023-02-27T15:01:05.194Z,100111.97
2023-02-27T15:04:08.558Z,100125.06
2023-02-27T15:07:24.722Z,100113.62
2023-02-27T15:10:33.438Z,100138.38
2023-02-27T15:13:39.211Z,100144.66
2023-02-27T15:16:43.018Z,100136.31
2023-02-27T15:19:52.217Z,100147.75
2023-02-27T15:22:55.162Z,100151.84
2023-02-27T15:25:59.581Z,100152.31
2023-02-27T15:29:04.460Z,100146.06
2023-02-27T15:32:15.989Z,100151.84
2023-02-27T15:35:25.492Z,100162.66
2023-02-27T15:38:30.752Z,100169.72
2023-02-27T15:41:34.173Z,100174.91
2023-02-27T15:44:45.537Z,100179.03
2023-02-27T15:47:48.591Z,100175.03
2023-02-27T15:50:58.358Z,100176.63
2023-02-27T15:54:01.284Z,100175.31
2023-02-27T15:57:05.219Z,100184.47
2023-02-27T16:00:08.928Z,100182.53
2023-02-27T16:03:22.143Z,100186.34
2023-02-27T16:06:40.895Z,100200.25
2023-02-27T16:09:47.028Z,100184.38
2023-02-27T16:12:51.576Z,100205.97
2023-02-27T16:16:21.939Z,100208.44
2023-02-27T16:19:30.133Z,100218.41
2023-02-27T16:22:33.699Z,100218.78
2023-02-27T16:25:37.249Z,100221.25
2023-02-27T16:29:04.165Z,100222.47
2023-02-27T16:32:30.851Z,100228.78
2023-02-27T16:35:35.432Z,100229.56
2023-02-27T16:38:38.831Z,100231.31
2023-02-27T16:41:42.001Z,100243.44
2023-02-27T16:44:45.006Z,100244.03
2023-02-27T16:47:55.427Z,100249.22
2023-02-27T16:50:58.613Z,100248.13
2023-02-27T16:54:01.313Z,100262.66
2023-02-27T16:57:04.607Z,100265.53
2023-02-27T17:00:07.880Z,100269.62
2023-02-27T17:03:12.026Z,100269.62
2023-02-27T17:06:15.178Z,100271.88
2023-02-27T17:09:18.324Z,100279.50
2023-02-27T17:12:21.264Z,100279.62
2023-02-27T17:15:27.333Z,100272.03
2023-02-27T17:18:30.278Z,100282.62
2023-02-27T17:21:35.061Z,100280.31
2023-02-27T17:24:38.569Z,100284.66
2023-02-27T17:27:44.892Z,100278.81
2023-02-27T17:30:48.857Z,100285.69
2023-02-27T17:33:56.642Z,100299.19
2023-02-27T17:36:59.440Z,100282.47
2023-02-27T17:40:04.712Z,100298.72
2023-02-27T17:43:07.519Z,100300.94
2023-02-27T17:46:12.000Z,100289.97
2023-02-27T17:49:14.737Z,100289.34
2023-02-27T17:52:17.688Z,100304.47
2023-02-27T17:55:20.511Z,100312.34
2023-02-27T17:58:23.981Z,100310.81
2023-02-27T18:01:27.550Z,100324.38
2023-02-27T18:04:30.760Z,100327.78
2023-02-27T18:07:34.751Z,100326.03
2023-02-27T18:10:37.853Z,100336.91
2023-02-27T18:13:41.461Z,100335.81
2023-02-27T18:16:45.120Z,100345.44
2023-02-27T18:19:48.098Z,100360.31
2023-02-27T18:22:51.042Z,100356.88
2023-02-27T18:25:56.081Z,100357.94
2023-02-27T18:29:09.299Z,100353.88
2023-02-27T18:32:13.057Z,100366.19
2023-02-27T18:35:16.664Z,100353.72
2023-02-27T18:38:19.389Z,100367.72
2023-02-27T18:41:22.443Z,100363.75
2023-02-27T18:44:25.248Z,100358.84
2023-02-27T18:47:30.243Z,100362.31
2023-02-27T18:50:33.164Z,100348.19
2023-02-27T18:53:36.213Z,100360.62
2023-02-27T18:56:38.986Z,100368.94
2023-02-27T18:59:42.056Z,100364.31
2023-02-27T19:02:48.015Z,100356.97
2023-02-27T19:05:51.288Z,100374.94
2023-02-27T19:08:54.641Z,100381.47
2023-02-27T19:11:58.355Z,100361.38
2023-02-27T19:15:01.898Z,100374.78
2023-02-27T19:18:06.917Z,100386.72
2023-02-27T19:21:09.742Z,100390.91
2023-02-27T19:24:13.931Z,100385.53
2023-02-27T19:27:17.315Z,100388.56
2023-02-27T19:30:20.653Z,100386.56
2023-02-27T19:33:23.490Z,100402.50
2023-02-27T19:36:28.934Z,100398.66
2023-02-27T19:39:31.820Z,100402.81
2023-02-27T19:42:34.793Z,100413.06
2023-02-27T19:45:41.253Z,100420.59
2023-02-27T19:48:45.467Z,100419.59
2023-02-27T19:51:48.805Z,100424.78
2023-02-27T19:54:51.869Z,100429.16
2023-02-27T19:57:54.728Z,100421.13
2023-02-27T20:00:57.854Z,100428.16
2023-02-27T20:04:01.985Z,100440.03
2023-02-27T20:07:04.808Z,100424.97
2023-02-27T20:10:08.534Z,100436.38
2023-02-27T20:13:11.406Z,100435.69
2023-02-27T20:16:17.689Z,100430.31
2023-02-27T20:19:22.595Z,100445.94
2023-02-27T20:22:26.096Z,100452.12
2023-02-27T20:25:30.064Z,100438.72
2023-02-27T20:28:33.053Z,100435.50
2023-02-27T20:31:38.038Z,100460.34
2023-02-27T20:34:41.261Z,100461.16
2023-02-27T20:37:43.952Z,100461.66
2023-02-27T20:40:46.933Z,100464.34
2023-02-27T20:43:50.174Z,100445.41
2023-02-27T20:46:53.498Z,100461.63
2023-02-27T20:49:56.210Z,100466.16
2023-02-27T20:52:59.250Z,100457.44
2023-02-27T20:56:02.041Z,100465.47
2023-02-27T20:59:06.936Z,100462.78
2023-02-27T21:02:10.713Z,100470.31
2023-02-27T21:05:13.930Z,100467.28
2023-02-27T21:08:17.329Z,100454.69
2023-02-27T21:11:29.493Z,100470.44
2023-02-27T21:14:33.142Z,100469.91
2023-02-27T21:17:36.200Z,100474.59
2023-02-27T21:20:45.037Z,100473.44
2023-02-27T21:23:47.993Z,100466.69
2023-02-27T21:26:50.757Z,100472.38
2023-02-27T21:29:53.850Z,100466.81
2023-02-27T21:32:57.839Z,100460.94
2023-02-27T21:36:00.905Z,100465.53
2023-02-27T21:39:06.743Z,100465.66
2023-02-27T21:42:09.912Z,100466.84
2023-02-27T21:45:12.648Z,100464.25
2023-02-27T21:48:16.179Z,100467.25
2023-02-27T21:51:32.950Z,100469.75
2023-02-27T21:54:40.011Z,100462.38
2023-02-27T21:57:42.655Z,100467.37
2023-02-27T22:00:45.656Z,100470.91
2023-02-27T22:03:52.497Z,100469.22
2023-02-27T22:06:55.186Z,100465.69
2023-02-27T22:09:58.151Z,100478.31
2023-02-27T22:13:00.741Z,100475.62
2023-02-27T22:16:09.487Z,100480.34
2023-02-27T22:19:19.626Z,100482.88
2023-02-27T22:22:22.965Z,100478.13
2023-02-27T22:25:25.664Z,100489.91
2023-02-27T22:28:31.106Z,100485.56
2023-02-27T22:31:36.968Z,100498.28
2023-02-27T22:34:40.349Z,100488.25
2023-02-27T22:37:43.385Z,100491.09
2023-02-27T22:40:46.364Z,100502.34
2023-02-27T22:43:49.455Z,100507.25
2023-02-27T22:46:53.106Z,100496.47
2023-02-27T22:49:55.853Z,100506.41
2023-02-27T22:52:58.941Z,100503.41
2023-02-27T22:56:01.615Z,100498.09
2023-02-27T22:59:05.936Z,100510.53
2023-02-27T23:02:10.237Z,100511.34
2023-02-27T23:05:13.772Z,100514.38
2023-02-27T23:08:16.852Z,100523.19
2023-02-27T23:11:20.908Z,100525.56
2023-02-27T23:14:24.029Z,100531.81
2023-02-27T23:17:27.065Z,100537.38
2023-02-27T23:20:29.797Z,100539.31
2023-02-27T23:23:32.790Z,100547.88
2023-02-27T23:26:37.599Z,100550.59
2023-02-27T23:29:40.670Z,100540.03
2023-02-27T23:32:47.248Z,100547.44
2023-02-27T23:35:50.722Z,100558.34
2023-02-27T23:38:53.669Z,100555.34
2023-02-27T23:41:56.598Z,100539.38
2023-02-27T23:45:11.658Z,100559.84
2023-02-27T23:48:14.721Z,100561.22
2023-02-27T23:51:17.420Z,100563.72
2023-02-27T23:54:20.444Z,100565.41
2023-02-27T23:57:23.186Z,100568.09
